Time;durP1;ratioP1;P1;durP2;ratioP2;P2;SDS_P1;SDS_P2;PMS_P1;PMS_P2;Temp;Humidity;BMP_temperature;BMP_pressure;BME280_temperature;BME280_humidity;BME280_pressure;Samples;Min_cycle;Max_cycle;Signal;HPM_P1;HPM_P2
2022/09/23 00:01:45;;;;;;;3.83;1.48;;;12.10;99.90;;;11.43;100.00;101388.38;5072179;23;20006;-71
2022/09/23 00:03:48;;;;;;;2.80;1.70;;;12.10;99.90;;;11.34;100.00;101376.88;5073853;23;20653;-71
2022/09/23 00:06:02;;;;;;;2.17;1.38;;;12.00;99.90;;;11.30;100.00;101372.88;5072347;23;20474;-71
2022/09/23 00:08:05;;;;;;;2.67;1.50;;;12.00;99.90;;;11.34;100.00;101387.44;5072409;23;20436;-71
2022/09/23 00:10:07;;;;;;;3.67;1.60;;;12.00;99.90;;;11.34;100.00;101379.53;5072372;23;20012;-71
2022/09/23 00:12:09;;;;;;;3.85;1.58;;;12.00;99.90;;;11.33;100.00;101374.38;5048015;23;20011;-71
2022/09/23 00:14:10;;;;;;;5.45;1.73;;;12.00;99.90;;;11.34;100.00;101368.97;5072456;23;20094;-71
2022/09/23 00:16:19;;;;;;;4.18;1.85;;;11.90;99.90;;;11.33;100.00;101366.44;5047778;23;20007;-70
2022/09/23 00:18:20;;;;;;;3.55;1.90;;;12.00;99.90;;;11.26;100.00;101365.38;5071994;23;20002;-71
2022/09/23 00:20:21;;;;;;;5.05;2.10;;;12.00;99.90;;;11.26;100.00;101368.03;5072399;23;20034;-70
2022/09/23 00:22:22;;;;;;;3.40;1.80;;;11.90;99.90;;;11.24;100.00;101375.25;5072244;23;20006;-70
2022/09/23 00:24:23;;;;;;;2.33;1.70;;;11.90;99.90;;;11.21;100.00;101375.53;5073778;23;20006;-71
2022/09/23 00:26:24;;;;;;;3.60;2.15;;;11.90;99.90;;;11.23;100.00;101376.25;5072279;23;20057;-71
2022/09/23 00:28:25;;;;;;;5.70;2.22;;;11.90;99.90;;;11.21;100.00;101370.25;5072274;23;20014;-71
2022/09/23 00:30:26;;;;;;;2.47;1.83;;;11.90;99.90;;;11.14;100.00;101353.34;5096693;23;20013;-71
2022/09/23 00:32:27;;;;;;;4.18;2.17;;;11.90;99.90;;;11.31;100.00;101374.53;5073434;23;20010;-71
2022/09/23 00:34:28;;;;;;;4.65;2.40;;;11.90;99.90;;;11.34;100.00;101368.13;5081707;23;20048;-71
2022/09/23 00:36:31;;;;;;;4.10;2.10;;;12.00;99.90;;;11.40;100.00;101362.25;5049152;23;20011;-71
2022/09/23 00:38:35;;;;;;;5.90;2.30;;;12.00;99.90;;;11.43;100.00;101357.53;5073877;23;20002;-71
2022/09/23 00:40:45;;;;;;;4.63;2.30;;;12.10;99.90;;;11.51;100.00;101362.06;5049602;23;20094;-71
2022/09/23 00:42:48;;;;;;;4.28;2.00;;;12.10;99.90;;;11.50;100.00;101348.00;5074180;23;20065;-70
2022/09/23 00:44:53;;;;;;;3.20;1.73;;;12.20;99.90;;;11.62;100.00;101360.03;5073649;23;20013;-71
2022/09/23 00:46:54;;;;;;;4.65;2.22;;;12.20;99.90;;;11.63;100.00;101358.25;5099452;23;20481;-71
2022/09/23 00:49:21;;;;;;;6.03;1.90;;;12.30;99.90;;;11.66;100.00;101357.94;5099811;23;20052;-70
2022/09/23 00:51:28;;;;;;;3.28;2.15;;;12.30;99.90;;;11.69;100.00;101352.38;5074971;23;20121;-70
2022/09/23 00:53:29;;;;;;;3.25;1.80;;;12.30;99.90;;;11.73;100.00;101358.22;5074383;23;20017;-71
2022/09/23 00:55:45;;;;;;;2.13;1.40;;;12.30;99.90;;;11.68;100.00;101355.19;5048984;23;20006;-70
2022/09/23 00:57:46;;;;;;;3.50;1.90;;;12.40;99.90;;;11.67;100.00;101351.69;5074433;23;20029;-71
2022/09/23 00:59:49;;;;;;;3.10;1.75;;;12.30;99.90;;;11.62;100.00;101344.19;5073562;23;20469;-71
2022/09/23 01:01:54;;;;;;;2.40;1.80;;;12.30;99.90;;;11.60;100.00;101348.81;5073235;23;20084;-71
2022/09/23 01:03:57;;;;;;;3.58;2.00;;;12.30;99.90;;;11.50;100.00;101339.25;5073906;23;20002;-71
2022/09/23 01:05:58;;;;;;;4.65;1.98;;;12.20;99.90;;;11.46;100.00;101345.81;5099414;23;20009;-71
2022/09/23 01:08:01;;;;;;;4.38;2.20;;;12.10;99.90;;;11.41;100.00;101342.81;5073491;23;20013;-71
2022/09/23 01:10:04;;;;;;;2.55;1.98;;;12.10;99.90;;;11.38;100.00;101332.53;5099148;23;20053;-71
2022/09/23 01:12:28;;;;;;;2.55;1.52;;;12.10;99.90;;;11.36;100.00;101339.75;5049043;23;20086;-71
2022/09/23 01:14:41;;;;;;;3.38;1.80;;;12.00;99.90;;;11.30;100.00;101342.97;5074158;23;20006;-71
2022/09/23 01:17:33;;;;;;;2.60;1.80;;;12.00;99.90;;;11.26;100.00;101347.72;5099172;23;20002;-71
2022/09/23 01:20:14;;;;;;;3.42;1.85;;;12.00;99.90;;;11.20;100.00;101347.47;4977526;23;20015;-71
2022/09/23 01:22:21;;;;;;;5.10;2.05;;;11.90;99.90;;;11.17;100.00;101351.22;5099588;23;20315;-71
2022/09/23 01:25:08;;;;;;;3.58;1.90;;;11.90;99.90;;;11.19;100.00;101345.81;5073027;23;20160;-71
2022/09/23 01:27:33;;;;;;;4.32;2.38;;;11.90;99.90;;;11.19;100.00;101345.81;5099605;23;20096;-71
2022/09/23 01:30:30;;;;;;;4.03;2.03;;;11.90;99.90;;;11.22;100.00;101337.59;5073070;23;21455;-71
2022/09/23 01:32:39;;;;;;;3.28;1.92;;;11.90;99.90;;;11.23;100.00;101329.50;5072800;23;20078;-71
2022/09/23 01:34:55;;;;;;;4.40;2.00;;;12.00;99.90;;;11.23;100.00;101321.59;5099152;23;20327;-71
2022/09/23 01:37:29;;;;;;;2.72;1.80;;;12.00;99.90;;;11.25;100.00;101327.56;5074446;23;20013;-71
2022/09/23 01:40:00;;;;;;;3.13;2.20;;;12.00;99.90;;;11.26;100.00;101323.13;5046872;23;20014;-71
2022/09/23 01:42:28;;;;;;;5.68;1.80;;;12.00;99.90;;;11.25;100.00;101321.47;5078615;23;20006;-71
2022/09/23 01:45:00;;;;;;;3.90;2.00;;;12.00;99.90;;;11.25;100.00;101316.19;5073891;23;20014;-71
2022/09/23 01:47:13;;;;;;;4.18;2.83;;;12.00;99.90;;;11.31;100.00;101320.88;5073601;23;20037;-71
2022/09/23 01:49:20;;;;;;;4.93;2.22;;;12.00;99.90;;;11.26;100.00;101308.09;5073878;23;20454;-71
2022/09/23 01:51:31;;;;;;;4.70;2.00;;;12.00;99.90;;;11.30;100.00;101312.13;5073755;23;20002;-71
2022/09/23 01:53:48;;;;;;;4.28;2.17;;;12.00;99.90;;;11.34;100.00;101316.13;5049173;23;20065;-71
2022/09/23 01:55:57;;;;;;;3.13;2.60;;;12.00;99.90;;;11.34;100.00;101302.09;5098870;23;20005;-71
2022/09/23 01:58:20;;;;;;;3.28;2.50;;;12.00;99.90;;;11.41;100.00;101309.28;5074236;23;20069;-71
2022/09/23 02:00:23;;;;;;;2.28;1.58;;;12.10;99.90;;;11.42;100.00;101308.31;5075954;23;20077;-71
2022/09/23 02:02:33;;;;;;;4.17;2.07;;;12.10;99.90;;;11.45;100.00;101301.88;5072856;23;20010;-71
2022/09/23 02:04:50;;;;;;;2.58;2.00;;;12.10;99.90;;;11.45;100.00;101313.28;5073633;23;20010;-71
2022/09/23 02:06:58;;;;;;;3.00;2.03;;;12.10;99.90;;;11.40;100.00;101312.06;5051046;23;20077;-71
2022/09/23 02:09:05;;;;;;;4.70;1.95;;;12.10;99.90;;;11.38;100.00;101321.97;5073757;23;20013;-71
2022/09/23 02:11:10;;;;;;;4.35;2.30;;;12.10;99.90;;;11.37;100.00;101325.56;5073835;23;20153;-71
2022/09/23 02:13:24;;;;;;;4.65;2.97;;;12.00;99.90;;;11.29;100.00;101309.63;5073235;23;20050;-70
2022/09/23 02:15:34;;;;;;;5.20;2.42;;;12.00;99.90;;;11.38;100.00;101319.31;5073228;23;20010;-71
2022/09/23 02:18:14;;;;;;;5.30;2.53;;;12.00;99.90;;;11.39;100.00;101318.31;5072179;23;20001;-71
2022/09/23 02:20:38;;;;;;;4.82;2.38;;;12.00;99.90;;;11.40;100.00;101309.44;5073848;23;20013;-71
2022/09/23 02:22:50;;;;;;;4.45;2.38;;;12.10;99.90;;;11.46;100.00;101301.75;5073344;23;20033;-71
2022/09/23 02:24:53;;;;;;;3.50;2.28;;;12.10;99.90;;;11.49;100.00;101303.25;5074480;23;20010;-71
2022/09/23 02:27:18;;;;;;;4.55;2.97;;;12.20;99.90;;;11.55;100.00;101303.50;5073033;23;20006;-71
2022/09/23 02:29:44;;;;;;;6.22;3.10;;;12.20;99.90;;;11.59;100.00;101304.00;5072477;23;20009;-71
2022/09/23 02:32:01;;;;;;;5.32;2.13;;;12.30;99.90;;;11.56;100.00;101281.38;5098331;23;20014;-71
2022/09/23 02:34:44;;;;;;;4.68;2.25;;;12.30;99.90;;;11.62;100.00;101290.50;5072933;23;20006;-71
2022/09/23 02:37:00;;;;;;;3.45;2.30;;;12.30;99.90;;;11.57;100.00;101288.31;5098562;23;20084;-71
2022/09/23 02:39:11;;;;;;;5.80;2.38;;;12.30;99.90;;;11.48;100.00;101280.44;5074682;23;20077;-71
2022/09/23 02:41:25;;;;;;;5.22;2.20;;;12.20;99.90;;;11.46;100.00;101287.72;5073339;23;20018;-71
2022/09/23 02:43:38;;;;;;;4.03;2.10;;;12.20;99.90;;;11.41;100.00;101280.22;5072442;23;20013;-71
2022/09/23 02:45:38;;;;;;;5.32;2.08;;;12.10;99.90;;;11.39;100.00;101286.63;5098693;23;20008;-71
2022/09/23 02:47:43;;;;;;;2.47;1.80;;;12.10;99.90;;;11.37;100.00;101278.03;5047807;23;20006;-71
2022/09/23 02:49:44;;;;;;;3.83;2.53;;;12.10;99.90;;;11.40;100.00;101272.44;5048632;23;20135;-71
2022/09/23 02:51:45;;;;;;;3.83;2.20;;;12.10;99.90;;;11.40;100.00;101281.22;5098274;23;20434;-71
2022/09/23 02:53:47;;;;;;;3.60;2.10;;;12.10;99.90;;;11.44;100.00;101273.81;5072286;23;20175;-71
2022/09/23 02:55:48;;;;;;;2.95;1.92;;;12.10;99.90;;;11.43;100.00;101273.00;5072649;23;20006;-71
2022/09/23 02:57:51;;;;;;;2.80;2.20;;;12.10;99.90;;;11.30;100.00;101243.44;5047622;23;20065;-71
2022/09/23 02:59:52;;;;;;;4.50;2.50;;;12.10;99.90;;;11.39;100.00;101254.94;5072301;23;20081;-71
2022/09/23 03:01:58;;;;;;;3.65;2.60;;;12.10;99.90;;;11.50;100.00;101268.75;5096732;23;20060;-71
2022/09/23 03:04:24;;;;;;;5.65;2.60;;;12.20;99.90;;;11.52;100.00;101272.09;5098614;23;20076;-71
2022/09/23 03:06:45;;;;;;;4.03;2.40;;;12.20;99.90;;;11.44;100.00;101274.63;5072396;23;20141;-70
2022/09/23 03:09:04;;;;;;;2.83;2.20;;;12.20;99.90;;;11.43;100.00;101280.06;5075378;23;20002;-71
2022/09/23 03:11:10;;;;;;;5.20;2.28;;;12.10;99.90;;;11.41;100.00;101282.03;5098786;23;20011;-71
2022/09/23 03:13:27;;;;;;;7.32;2.83;;;12.10;99.90;;;11.36;100.00;101271.06;5098678;23;20009;-71
2022/09/23 03:16:03;;;;;;;3.60;2.17;;;12.10;99.90;;;11.40;100.00;101268.00;5074544;23;20001;-71
2022/09/23 03:18:20;;;;;;;3.22;2.30;;;12.10;99.90;;;11.41;100.00;101260.91;5098054;23;20092;-71
2022/09/23 03:20:33;;;;;;;5.85;3.20;;;12.10;99.90;;;11.38;100.00;101256.72;5072877;23;20006;-71
2022/09/23 03:22:43;;;;;;;4.75;2.70;;;12.10;99.90;;;11.45;100.00;101264.91;5073033;23;20446;-71
2022/09/23 03:25:08;;;;;;;4.47;2.70;;;12.10;99.90;;;11.45;100.00;101268.38;5048358;23;20010;-71
2022/09/23 03:27:16;;;;;;;3.58;2.80;;;12.20;99.90;;;11.35;100.00;101249.09;5072540;23;20014;-71
2022/09/23 03:29:19;;;;;;;3.10;2.28;;;12.10;99.90;;;11.38;100.00;101248.81;5049047;23;20090;-71
2022/09/23 03:31:20;;;;;;;4.97;2.30;;;12.10;99.90;;;11.40;100.00;101251.31;5072612;23;20454;-71
2022/09/23 03:33:26;;;;;;;4.78;2.70;;;12.10;99.90;;;11.38;100.00;101245.38;5071977;23;20050;-71
2022/09/23 03:35:31;;;;;;;6.00;2.35;;;12.10;99.90;;;11.38;100.00;101245.38;5098071;23;20017;-71
2022/09/23 03:37:40;;;;;;;4.80;2.67;;;12.10;99.90;;;11.40;100.00;101246.03;5072995;23;20025;-71
2022/09/23 03:39:52;;;;;;;5.78;2.83;;;12.10;99.90;;;11.40;100.00;101246.88;5073006;23;20002;-71
2022/09/23 03:41:56;;;;;;;4.47;2.80;;;12.10;99.90;;;11.36;100.00;101236.75;5049217;23;20462;-71
2022/09/23 03:43:58;;;;;;;3.60;3.00;;;12.10;99.90;;;11.35;100.00;101243.81;5098490;23;20002;-71
2022/09/23 03:46:00;;;;;;;3.03;2.35;;;12.00;99.90;;;11.27;100.00;101237.63;5072678;23;20010;-71
2022/09/23 03:48:01;;;;;;;4.18;2.63;;;12.00;99.90;;;11.27;100.00;101245.56;5072030;23;20017;-71
2022/09/23 03:50:02;;;;;;;4.57;2.60;;;12.00;99.90;;;11.25;100.00;101243.06;5072697;23;20041;-71
2022/09/23 03:52:03;;;;;;;6.32;3.42;;;12.00;99.90;;;11.25;100.00;101234.31;5072536;23;20010;-70
2022/09/23 03:54:04;;;;;;;3.90;2.45;;;12.00;99.90;;;11.29;100.00;101235.69;5072613;23;20465;-70
2022/09/23 03:56:05;;;;;;;5.75;2.90;;;12.00;99.90;;;11.19;100.00;101225.19;5098170;23;20008;-71
2022/09/23 03:58:07;;;;;;;6.10;2.90;;;12.00;99.90;;;11.23;100.00;101229.16;5072271;23;20006;-71
2022/09/23 04:00:09;;;;;;;6.20;2.58;;;12.00;99.90;;;11.27;100.00;101234.97;5096857;23;20009;-71
2022/09/23 04:02:10;;;;;;;3.40;2.30;;;12.00;99.90;;;11.26;100.00;101249.19;5047700;23;20046;-71
2022/09/23 04:04:11;;;;;;;3.58;2.42;;;12.00;99.90;;;11.25;100.00;101250.16;5098153;23;20085;-71
2022/09/23 04:06:12;;;;;;;3.85;2.63;;;11.90;99.90;;;11.23;100.00;101250.28;5098497;23;20005;-71
2022/09/23 04:08:13;;;;;;;3.65;2.78;;;11.90;99.90;;;11.19;100.00;101238.38;5072526;23;20061;-70
2022/09/23 04:10:14;;;;;;;3.70;2.78;;;11.90;99.90;;;11.23;100.00;101242.38;5099733;23;20005;-71
2022/09/23 04:12:15;;;;;;;4.35;2.40;;;11.90;99.90;;;11.28;100.00;101253.34;5073913;23;20001;-71
2022/09/23 04:14:18;;;;;;;4.43;2.88;;;12.00;99.90;;;11.32;100.00;101261.81;5073834;23;20006;-71
2022/09/23 04:16:19;;;;;;;4.30;2.90;;;12.00;99.90;;;11.28;100.00;101257.78;5099667;23;20010;-71
2022/09/23 04:18:20;;;;;;;3.33;2.80;;;12.00;99.90;;;11.34;100.00;101263.31;5099431;23;20002;-70
2022/09/23 04:20:21;;;;;;;5.40;2.78;;;12.00;99.90;;;11.36;100.00;101271.91;5074032;23;20009;-71
2022/09/23 04:22:22;;;;;;;4.82;3.05;;;12.10;99.90;;;11.39;100.00;101270.78;5073856;23;20006;-71
2022/09/23 04:24:23;;;;;;;6.13;3.75;;;12.10;99.90;;;11.46;100.00;101270.06;5098208;23;20084;-71
2022/09/23 04:26:24;;;;;;;7.00;3.40;;;12.10;99.90;;;11.49;100.00;101271.56;5073696;23;20066;-70
2022/09/23 04:28:25;;;;;;;6.35;3.67;;;12.10;99.90;;;11.48;100.00;101267.25;5099603;23;20009;-71
2022/09/23 04:30:26;;;;;;;5.43;3.88;;;12.20;99.90;;;11.55;100.00;101270.97;5073747;23;20426;-71
2022/09/23 04:32:27;;;;;;;8.32;4.63;;;12.20;99.90;;;11.59;100.00;101264.38;5073326;23;20014;-71
2022/09/23 04:34:27;;;;;;;5.55;3.88;;;12.30;99.90;;;11.61;100.00;101259.78;5099627;23;20017;-71
2022/09/23 04:36:29;;;;;;;5.43;4.38;;;12.30;99.90;;;11.67;100.00;101253.91;5073606;23;20434;-71
2022/09/23 04:38:30;;;;;;;6.03;3.72;;;12.30;99.90;;;11.54;100.00;101232.31;5099876;23;20092;-71
2022/09/23 04:40:31;;;;;;;5.30;4.00;;;12.40;99.90;;;11.66;100.00;101246.97;5099813;23;20002;-71
2022/09/23 04:42:32;;;;;;;5.97;3.55;;;12.40;99.90;;;11.71;100.00;101255.28;5099563;23;20072;-71
2022/09/23 04:44:33;;;;;;;4.75;3.33;;;12.40;99.90;;;11.66;100.00;101246.97;5099494;23;20010;-71
2022/09/23 04:46:34;;;;;;;5.95;4.28;;;12.40;99.90;;;11.68;100.00;101254.75;5049202;23;20006;-71
2022/09/23 04:48:36;;;;;;;8.68;3.67;;;12.40;99.90;;;11.59;100.00;101244.06;5099444;23;20013;-71
2022/09/23 04:50:38;;;;;;;3.75;2.90;;;12.30;99.90;;;11.56;100.00;101243.53;5073638;23;20020;-71
2022/09/23 04:52:39;;;;;;;3.47;2.95;;;12.30;99.90;;;11.57;100.00;101247.84;5099513;23;20502;-71
2022/09/23 04:54:40;;;;;;;5.53;3.45;;;12.30;99.90;;;11.44;100.00;101221.78;5073622;23;20010;-71
2022/09/23 04:56:41;;;;;;;3.83;3.10;;;12.20;99.90;;;11.49;100.00;101231.94;5099568;23;20005;-71
2022/09/23 04:58:44;;;;;;;5.70;2.90;;;12.30;99.90;;;11.55;100.00;101242.75;5049188;23;20006;-71
2022/09/23 05:00:45;;;;;;;3.92;3.00;;;12.30;99.90;;;11.41;100.00;101223.94;5099407;23;20006;-71
2022/09/23 05:02:48;;;;;;;4.57;2.80;;;12.20;99.90;;;11.52;100.00;101250.13;5048827;23;20007;-71
2022/09/23 05:04:49;;;;;;;3.80;3.22;;;12.20;99.90;;;11.49;100.00;101243.34;5073792;23;20029;-70
2022/09/23 05:06:50;;;;;;;3.75;2.70;;;12.20;99.90;;;11.45;100.00;101234.03;5099378;23;20005;-71
2022/09/23 05:08:53;;;;;;;4.10;3.10;;;12.20;99.90;;;11.45;100.00;101236.69;5049351;23;20015;-70
2022/09/23 05:10:58;;;;;;;3.78;2.92;;;12.20;99.90;;;11.45;100.00;101244.59;5073479;23;20006;-70
2022/09/23 05:12:59;;;;;;;4.05;3.03;;;12.20;99.90;;;11.42;100.00;101244.06;5073472;23;20518;-71
2022/09/23 05:15:01;;;;;;;4.63;2.70;;;12.10;99.90;;;11.43;100.00;101248.38;5073517;23;20054;-71
2022/09/23 05:17:02;;;;;;;5.13;3.35;;;12.10;99.90;;;11.40;100.00;101251.31;5098957;23;20420;-71
2022/09/23 05:19:03;;;;;;;4.70;3.20;;;12.10;99.90;;;11.38;100.00;101261.22;5073336;23;20002;-71
2022/09/23 05:21:04;;;;;;;4.22;3.05;;;12.10;99.90;;;11.39;100.00;101254.94;5073232;23;20044;-71
2022/09/23 05:23:04;;;;;;;4.63;3.20;;;12.10;99.90;;;11.40;100.00;101272.44;5073060;23;20009;-71
2022/09/23 05:25:06;;;;;;;5.63;3.53;;;12.10;99.90;;;11.40;100.00;101269.81;5097840;23;20323;-71
2022/09/23 05:27:07;;;;;;;5.80;3.50;;;12.10;99.90;;;11.31;100.00;101254.84;5073105;23;20006;-71
2022/09/23 05:29:08;;;;;;;6.00;3.40;;;12.10;99.90;;;11.27;100.00;101240.25;5097589;23;20016;-71
2022/09/23 05:31:14;;;;;;;5.93;3.50;;;12.10;99.90;;;11.35;100.00;101253.59;5073349;23;20005;-71
2022/09/23 05:33:15;;;;;;;3.92;3.05;;;12.10;99.90;;;11.41;100.00;101263.56;5073414;23;20033;-71
2022/09/23 05:35:16;;;;;;;3.50;2.95;;;12.10;99.90;;;11.42;100.00;101265.19;5099076;23;20017;-70
2022/09/23 05:37:17;;;;;;;7.07;3.85;;;12.10;99.90;;;11.34;100.00;101260.66;5048803;23;20007;-71
2022/09/23 05:39:18;;;;;;;5.05;3.40;;;12.10;99.90;;;11.36;100.00;101265.78;5073362;23;20006;-71
2022/09/23 05:41:23;;;;;;;4.10;2.95;;;12.10;99.90;;;11.33;100.00;101256.34;5073539;23;20006;-71
2022/09/23 05:43:25;;;;;;;4.25;3.85;;;12.10;99.90;;;11.35;100.00;101264.16;5073722;23;20012;-71
2022/09/23 05:45:25;;;;;;;4.20;3.63;;;12.00;99.90;;;11.21;100.00;101230.28;5099026;23;20386;-71
2022/09/23 05:47:26;;;;;;;6.13;3.47;;;12.00;99.90;;;11.32;100.00;101259.16;5098718;23;20006;-71
2022/09/23 05:49:27;;;;;;;4.20;3.08;;;12.00;99.90;;;11.31;100.00;101260.97;5098919;23;20013;-71
2022/09/23 05:51:29;;;;;;;6.93;3.38;;;12.00;99.90;;;11.32;100.00;101259.97;5099116;23;20009;-70
2022/09/23 05:53:30;;;;;;;4.45;3.80;;;12.10;99.90;;;11.35;100.00;101261.50;5098989;23;20009;-71
2022/09/23 05:55:31;;;;;;;5.70;3.88;;;12.00;99.90;;;11.34;100.00;101257.19;5048651;23;20355;-71
2022/09/23 05:57:31;;;;;;;4.97;3.95;;;12.10;99.90;;;11.36;100.00;101249.94;5072984;23;20002;-71
2022/09/23 05:59:32;;;;;;;6.15;4.30;;;12.10;99.90;;;11.36;100.00;101247.31;5048683;23;20427;-71
2022/09/23 06:01:35;;;;;;;5.70;4.80;;;12.10;99.90;;;11.41;100.00;101258.28;5072061;23;20021;-70
2022/09/23 06:03:36;;;;;;;19.83;5.10;;;12.10;99.90;;;11.43;100.00;101256.31;5097601;23;20378;-71
2022/09/23 06:05:37;;;;;;;8.75;4.38;;;12.10;99.90;;;11.47;100.00;101260.28;5048782;23;20014;-71
2022/09/23 06:07:38;;;;;;;6.15;4.85;;;12.20;99.90;;;11.47;100.00;101252.38;5097544;23;20342;-71
2022/09/23 06:09:41;;;;;;;9.50;5.95;;;12.20;99.90;;;11.53;100.00;101251.75;5099049;23;20009;-71
2022/09/23 06:11:42;;;;;;;9.43;4.88;;;12.20;99.90;;;11.56;100.00;101252.31;5098856;23;20378;-71
2022/09/23 06:13:45;;;;;;;13.85;5.45;;;12.20;99.90;;;11.62;100.00;101256.16;5048500;23;20021;-70
2022/09/23 06:15:46;;;;;;;5.57;4.27;;;12.30;99.90;;;11.58;100.00;101254.81;5073009;23;20006;-72
2022/09/23 06:17:50;;;;;;;6.32;4.53;;;12.30;99.90;;;11.68;100.00;101262.69;5048256;23;20270;-72
2022/09/23 06:19:51;;;;;;;4.93;4.43;;;12.40;99.90;;;11.65;100.00;101261.97;5073246;23;20005;-72
2022/09/23 06:21:51;;;;;;;5.47;4.50;;;12.40;99.90;;;11.66;100.00;101261.00;5098694;23;20002;-72
2022/09/23 06:23:52;;;;;;;6.40;4.53;;;12.40;99.90;;;11.72;100.00;101264.88;5098734;23;20430;-72
2022/09/23 06:25:58;;;;;;;7.63;5.43;;;12.40;99.90;;;11.70;100.00;101253.66;5098896;23;20033;-72
2022/09/23 06:27:59;;;;;;;9.57;5.60;;;12.40;99.90;;;11.77;100.00;101252.03;5073304;23;20089;-72
2022/09/23 06:30:00;;;;;;;8.38;5.30;;;12.40;99.90;;;11.74;100.00;101246.25;5072662;23;20439;-72
2022/09/23 06:32:01;;;;;;;6.00;4.35;;;12.50;99.90;;;11.81;100.00;101253.41;5072041;23;20014;-72
2022/09/23 06:34:02;;;;;;;6.43;5.05;;;12.50;99.90;;;11.81;100.00;101248.13;5096897;23;20149;-72
2022/09/23 06:36:06;;;;;;;11.25;5.20;;;12.50;99.90;;;11.84;100.00;101260.19;5072015;23;20014;-72
2022/09/23 06:38:07;;;;;;;5.00;3.58;;;12.50;99.90;;;11.78;100.00;101261.66;5072641;23;20459;-72
2022/09/23 06:40:09;;;;;;;4.13;3.50;;;12.50;99.90;;;11.78;100.00;101260.81;5072273;23;20030;-72
2022/09/23 06:42:10;;;;;;;6.82;3.25;;;12.50;99.90;;;11.71;100.00;101243.91;5048000;23;20356;-72
2022/09/23 06:44:13;;;;;;;6.15;4.13;;;12.50;99.90;;;11.80;100.00;101259.66;5072640;23;20031;-72
2022/09/23 06:46:16;;;;;;;5.15;4.60;;;12.50;99.90;;;11.86;100.00;101264.34;5072679;23;20002;-72
2022/09/23 06:48:16;;;;;;;5.78;4.68;;;12.50;99.90;;;11.88;100.00;101267.69;5072702;23;20002;-72
2022/09/23 06:50:17;;;;;;;6.38;4.53;;;12.60;99.90;;;11.89;100.00;101261.41;5098274;23;20010;-73
2022/09/23 06:52:20;;;;;;;9.05;5.15;;;12.60;99.90;;;11.84;100.00;101250.47;5096572;23;20016;-72
2022/09/23 06:54:21;;;;;;;8.77;5.40;;;12.70;99.90;;;11.96;100.00;101265.13;5072494;23;20002;-72
2022/09/23 06:56:22;;;;;;;9.07;5.00;;;12.70;99.90;;;12.01;100.00;101260.19;5047960;23;20006;-72
2022/09/23 06:58:23;;;;;;;8.75;5.50;;;12.70;99.90;;;12.10;100.00;101267.22;5048233;23;20006;-72
2022/09/23 07:00:25;;;;;;;8.15;5.18;;;12.80;99.90;;;12.16;100.00;101269.25;5098312;23;20006;-73
2022/09/23 07:02:26;;;;;;;6.20;5.22;;;12.90;99.90;;;12.21;100.00;101259.03;5072374;23;20002;-73
2022/09/23 07:04:26;;;;;;;6.43;4.38;;;12.90;99.90;;;12.20;100.00;101265.31;5048123;23;20002;-73
2022/09/23 07:06:27;;;;;;;5.95;5.35;;;13.00;99.90;;;12.34;100.00;101281.59;5047985;23;20376;-73
2022/09/23 07:08:29;;;;;;;7.35;5.03;;;13.00;99.90;;;12.37;100.00;101271.53;5098062;23;20016;-73
2022/09/23 07:10:30;;;;;;;11.93;6.32;;;13.10;99.90;;;12.47;100.00;101258.22;5048102;23;20007;-73
2022/09/23 07:12:32;;;;;;;6.05;4.55;;;13.10;99.90;;;12.51;100.00;101271.00;5072488;23;20065;-73
2022/09/23 07:14:33;;;;;;;5.13;4.40;;;13.20;99.90;;;12.59;100.00;101273.69;5096837;23;20043;-73
2022/09/23 07:16:34;;;;;;;7.97;4.80;;;13.30;99.90;;;12.62;100.00;101272.53;5098329;23;20450;-73
2022/09/23 07:18:36;;;;;;;5.68;4.05;;;13.30;99.90;;;12.62;100.00;101272.53;5098334;23;20005;-74
2022/09/23 07:20:37;;;;;;;6.07;4.05;;;13.40;99.90;;;12.71;100.00;101276.91;5072703;23;20002;-74
2022/09/23 07:22:38;;;;;;;5.35;4.30;;;13.40;99.90;;;12.81;100.00;101276.78;5098338;23;20067;-74
2022/09/23 07:24:39;;;;;;;6.93;3.72;;;13.40;99.90;;;12.88;100.00;101278.63;5098287;23;20010;-73
2022/09/23 07:26:40;;;;;;;6.97;4.60;;;13.50;99.90;;;12.95;100.00;101287.63;5098332;23;20009;-74
2022/09/23 07:28:41;;;;;;;5.57;3.90;;;13.60;99.90;;;12.95;100.00;101263.78;5098263;23;20006;-74
2022/09/23 07:30:43;;;;;;;4.85;4.05;;;13.60;99.90;;;13.02;100.00;101267.44;5048135;23;20019;-73
2022/09/23 07:32:44;;;;;;;9.63;5.47;;;13.70;99.90;;;13.08;100.00;101268.69;5072232;23;20088;-74
2022/09/23 07:34:46;;;;;;;10.80;5.47;;;13.70;99.90;;;13.03;100.00;101250.56;5072365;23;20013;-74
2022/09/23 07:36:46;;;;;;;8.10;5.88;;;13.80;99.90;;;13.14;100.00;101260.91;5072462;23;20010;-74
2022/09/23 07:38:48;;;;;;;7.53;4.10;;;13.90;99.90;;;13.24;100.00;101274.03;5072427;23;20014;-73
2022/09/23 07:40:48;;;;;;;5.32;4.10;;;14.00;99.90;;;13.30;100.00;101279.53;5072572;23;20044;-73
2022/09/23 07:42:49;;;;;;;5.35;4.47;;;14.00;99.90;;;13.28;100.00;101272.72;5098903;23;20422;-73
2022/09/23 07:44:51;;;;;;;6.93;4.07;;;14.00;99.90;;;13.36;100.00;101287.81;5074083;23;20013;-73
2022/09/23 07:46:52;;;;;;;4.38;3.95;;;14.00;99.90;;;13.41;100.00;101290.84;5073647;23;20013;-73
2022/09/23 07:48:53;;;;;;;3.55;3.20;;;14.00;99.90;;;13.36;100.00;101261.31;5073994;23;20009;-73
2022/09/23 07:50:55;;;;;;;5.03;3.85;;;14.10;99.90;;;13.43;100.00;101265.00;5100071;23;20009;-73
2022/09/23 07:52:56;;;;;;;6.68;5.00;;;14.10;99.90;;;13.47;100.00;101269.78;5074052;23;20521;-74
2022/09/23 07:54:57;;;;;;;6.80;5.55;;;14.20;99.90;;;13.54;100.00;101272.63;5073843;23;20376;-74
2022/09/23 07:56:58;;;;;;;7.95;5.68;;;14.20;99.90;;;13.39;100.00;101253.88;5099893;23;20009;-74
2022/09/23 07:59:00;;;;;;;6.57;4.93;;;14.30;99.90;;;13.48;100.00;101268.81;5049728;23;20053;-73
2022/09/23 08:01:07;;;;;;;9.07;5.30;;;14.30;99.90;;;13.44;100.00;101264.00;5073971;23;20037;-73
2022/09/23 08:03:08;;;;;;;5.75;5.15;;;14.40;99.90;;;13.65;100.00;101288.25;5099372;23;20001;-73
2022/09/23 08:05:09;;;;;;;6.22;4.45;;;14.40;99.90;;;13.67;100.00;101289.75;5073768;23;20466;-74
2022/09/23 08:07:12;;;;;;;5.10;4.53;;;14.40;99.90;;;13.62;100.00;101275.31;5074139;23;20013;-73
2022/09/23 08:09:15;;;;;;;4.50;4.07;;;14.40;99.90;;;13.79;100.00;101295.56;5099805;23;20006;-73
2022/09/23 08:11:16;;;;;;;5.82;4.28;;;14.40;99.90;;;13.85;100.00;101305.50;5099947;23;20009;-73
2022/09/23 08:13:17;;;;;;;6.13;4.07;;;14.50;99.90;;;13.94;100.00;101290.44;5073605;23;20010;-73
2022/09/23 08:15:18;;;;;;;7.00;4.95;;;14.60;99.90;;;14.01;100.00;101288.81;5073396;23;20021;-73
2022/09/23 08:17:18;;;;;;;4.85;4.13;;;14.60;99.90;;;14.12;100.00;101291.13;5073684;23;20006;-73
2022/09/23 08:19:19;;;;;;;8.30;5.43;;;14.70;99.90;;;14.23;100.00;101286.31;5073761;23;20002;-73
2022/09/23 08:21:21;;;;;;;8.18;5.40;;;14.80;99.90;;;14.23;100.00;101274.84;5073796;23;20366;-72
2022/09/23 08:23:23;;;;;;;7.90;5.38;;;14.90;99.90;;;14.34;100.00;101290.47;5049642;23;20003;-72
2022/09/23 08:25:24;;;;;;;8.15;4.13;;;15.00;99.90;;;14.46;100.00;101282.97;5073617;23;20006;-73
2022/09/23 08:27:26;;;;;;;6.38;4.32;;;15.10;99.90;;;14.58;100.00;101284.28;5072982;23;20391;-73
2022/09/23 08:29:27;;;;;;;8.95;6.35;;;15.20;99.90;;;14.65;100.00;101277.31;5098058;23;20010;-73
2022/09/23 08:31:28;;;;;;;10.68;7.57;;;15.30;99.90;;;14.65;100.00;101258.75;5099381;23;20005;-73
2022/09/23 08:33:29;;;;;;;6.65;5.55;;;15.40;99.90;;;14.74;100.00;101266.53;5073532;23;20378;-73
2022/09/23 08:35:30;;;;;;;9.13;6.25;;;15.50;99.90;;;14.82;100.00;101270.97;5099171;23;20395;-73
2022/09/23 08:37:31;;;;;;;5.90;5.30;;;15.60;99.90;;;14.96;100.00;101283.56;5073501;23;20002;-73